createdAt,value
2019-02-22T00:01:40.356Z,78151.06
2019-02-22T00:04:11.563Z,78148.04
2019-02-22T00:06:42.763Z,78166.14
2019-02-22T00:09:14.026Z,78170.16
2019-02-22T00:11:46.342Z,78168.16
2019-02-22T00:14:17.580Z,78175.19
2019-02-22T00:16:48.775Z,78179.21
2019-02-22T00:19:20.029Z,78173.18
2019-02-22T00:21:51.290Z,78188.27
2019-02-22T00:24:22.571Z,78186.25
2019-02-22T00:26:53.757Z,78186.25
2019-02-22T00:29:25.112Z,78174.19
2019-02-22T00:31:56.415Z,78177.20
2019-02-22T00:34:27.780Z,78177.20
2019-02-22T00:36:59.119Z,78163.13
2019-02-22T00:39:30.459Z,78181.22
2019-02-22T00:42:01.717Z,78181.22
2019-02-22T00:44:32.997Z,78174.19
2019-02-22T00:47:04.188Z,78184.23
2019-02-22T00:49:35.486Z,78181.22
2019-02-22T00:52:06.723Z,78194.30
2019-02-22T00:54:37.947Z,78181.22
2019-02-22T00:57:09.163Z,78199.33
2019-02-22T00:59:40.453Z,78188.27
2019-02-22T01:02:11.705Z,78184.23
2019-02-22T01:04:42.945Z,78193.29
2019-02-22T01:07:14.305Z,78183.23
2019-02-22T01:09:45.557Z,78183.23
2019-02-22T01:12:16.747Z,78191.28
2019-02-22T01:14:48.017Z,78189.27
2019-02-22T01:17:19.271Z,78190.27
2019-02-22T01:19:50.522Z,78201.33
2019-02-22T01:22:21.870Z,78203.34
2019-02-22T01:24:53.061Z,78217.42
2019-02-22T01:27:24.310Z,78207.37
2019-02-22T01:29:55.594Z,78210.38
2019-02-22T01:32:26.872Z,78201.33
2019-02-22T01:34:58.158Z,78204.35
2019-02-22T01:37:29.360Z,78221.45
2019-02-22T01:40:00.616Z,78214.41
2019-02-22T01:42:31.909Z,78219.44
2019-02-22T01:45:03.208Z,78233.52
2019-02-22T01:47:34.487Z,78223.45
2019-02-22T01:50:06.182Z,78214.41
2019-02-22T01:52:37.478Z,78221.45
2019-02-22T01:55:08.790Z,78211.39
2019-02-22T01:57:40.005Z,78216.42
2019-02-22T02:00:12.902Z,78216.42
2019-02-22T02:02:44.173Z,78216.42
2019-02-22T02:05:15.461Z,78216.42
2019-02-22T02:07:46.708Z,78221.45
2019-02-22T02:10:17.987Z,78224.46
2019-02-22T02:12:49.229Z,78230.49
2019-02-22T02:15:20.489Z,78234.52
2019-02-22T02:17:51.762Z,78223.45
2019-02-22T02:20:23.075Z,78221.45
2019-02-22T02:22:54.332Z,78239.55
2019-02-22T02:25:25.605Z,78239.55
2019-02-22T02:27:56.811Z,78239.55
2019-02-22T02:30:28.052Z,78262.67
2019-02-22T02:32:59.270Z,78272.73
2019-02-22T02:35:30.545Z,78243.56
2019-02-22T02:38:01.867Z,78257.65
2019-02-22T02:40:33.093Z,78253.63
2019-02-22T02:43:04.290Z,78253.63
2019-02-22T02:45:35.702Z,78264.69
2019-02-22T02:48:07.024Z,78270.72
2019-02-22T02:50:38.271Z,78258.66
2019-02-22T02:53:09.526Z,78272.73
2019-02-22T02:55:40.780Z,78273.73
2019-02-22T02:58:12.145Z,78263.68
2019-02-22T03:00:43.356Z,78243.56
2019-02-22T03:03:14.647Z,78247.59
2019-02-22T03:06:16.829Z,78257.65
2019-02-22T03:08:48.096Z,78260.66
2019-02-22T03:11:21.156Z,78266.70
2019-02-22T03:13:52.290Z,78258.66
2019-02-22T03:16:23.530Z,78252.62
2019-02-22T03:18:54.790Z,78254.63
2019-02-22T03:21:26.041Z,78257.65
2019-02-22T03:23:57.317Z,78257.65
2019-02-22T03:26:28.694Z,78266.70
2019-02-22T03:29:01.366Z,78267.70
2019-02-22T03:31:32.659Z,78240.55
2019-02-22T03:34:03.930Z,78268.70
2019-02-22T03:36:35.178Z,78279.77
2019-02-22T03:39:07.765Z,78286.81
2019-02-22T03:41:39.035Z,78275.75
2019-02-22T03:44:10.319Z,78291.84
2019-02-22T03:46:41.536Z,78290.83
2019-02-22T03:49:12.899Z,78282.78
2019-02-22T03:51:44.110Z,78281.78
2019-02-22T03:54:15.501Z,78282.78
2019-02-22T03:56:46.758Z,78297.87
2019-02-22T03:59:18.089Z,78307.92
2019-02-22T04:01:49.337Z,78315.97
2019-02-22T04:04:20.693Z,78306.92
2019-02-22T04:06:51.974Z,78297.87
2019-02-22T04:09:23.271Z,78312.95
2019-02-22T04:11:54.600Z,78310.94
2019-02-22T04:14:25.893Z,78313.95
2019-02-22T04:16:57.086Z,78299.88
2019-02-22T04:19:28.673Z,78299.88
2019-02-22T04:21:59.906Z,78300.89
2019-02-22T04:24:31.170Z,78322.00
2019-02-22T04:27:02.506Z,78313.95
2019-02-22T04:29:33.796Z,78308.93
2019-02-22T04:32:05.129Z,78313.95
2019-02-22T04:34:36.448Z,78316.97
2019-02-22T04:37:07.779Z,78321.00
2019-02-22T04:39:39.044Z,78309.94
2019-02-22T04:42:10.313Z,78324.02
2019-02-22T04:44:41.655Z,78328.04
2019-02-22T04:47:12.955Z,78317.98
2019-02-22T04:49:44.230Z,78326.03
2019-02-22T04:52:15.563Z,78330.05
2019-02-22T04:54:46.770Z,78346.14
2019-02-22T04:57:18.070Z,78325.02
2019-02-22T04:59:49.304Z,78343.13
2019-02-22T05:02:20.552Z,78343.13
2019-02-22T05:04:51.933Z,78326.03
2019-02-22T05:07:23.229Z,78331.05
2019-02-22T05:09:54.707Z,78325.02
2019-02-22T05:12:26.048Z,78332.06
2019-02-22T05:15:16.350Z,78333.06
2019-02-22T05:17:47.629Z,78348.15
2019-02-22T05:20:18.893Z,78351.16
2019-02-22T05:22:50.168Z,78339.09
2019-02-22T05:25:21.435Z,78351.16
2019-02-22T05:27:52.715Z,78358.20
2019-02-22T05:30:23.988Z,78371.28
2019-02-22T05:32:55.277Z,78360.22
2019-02-22T05:35:26.577Z,78374.30
2019-02-22T05:37:57.816Z,78365.24
2019-02-22T05:40:29.143Z,78359.21
2019-02-22T05:43:00.407Z,78363.23
2019-02-22T05:45:31.686Z,78364.23
2019-02-22T05:48:02.949Z,78362.23
2019-02-22T05:50:34.220Z,78353.17
2019-02-22T05:53:05.498Z,78365.24
2019-02-22T05:55:36.799Z,78365.24
2019-02-22T05:58:08.103Z,78386.36
2019-02-22T06:00:39.377Z,78373.29
2019-02-22T06:03:13.892Z,78370.27
2019-02-22T06:05:45.244Z,78379.32
2019-02-22T06:08:16.544Z,78382.34
2019-02-22T06:10:47.770Z,78365.24
2019-02-22T06:13:19.102Z,78382.34
2019-02-22T06:15:50.372Z,78394.41
2019-02-22T06:18:23.132Z,78393.41
2019-02-22T06:20:54.509Z,78402.45
2019-02-22T06:23:25.884Z,78391.39
2019-02-22T06:25:57.135Z,78402.45
2019-02-22T06:28:28.415Z,78408.48
2019-02-22T06:30:59.693Z,78409.48
2019-02-22T06:33:30.881Z,78407.48
2019-02-22T06:36:02.158Z,78406.47
2019-02-22T06:38:33.453Z,78386.36
2019-02-22T06:41:04.713Z,78383.34
2019-02-22T06:43:35.882Z,78406.47
2019-02-22T06:46:07.148Z,78410.50
2019-02-22T06:48:38.424Z,78410.50
2019-02-22T06:51:09.759Z,78408.48
2019-02-22T06:53:40.925Z,78414.52
2019-02-22T06:56:12.187Z,78397.42
2019-02-22T06:58:43.485Z,78401.45
2019-02-22T07:01:14.755Z,78395.41
2019-02-22T07:03:46.045Z,78406.47
2019-02-22T07:06:17.251Z,78429.60
2019-02-22T07:08:48.523Z,78416.53
2019-02-22T07:11:26.704Z,78408.48
2019-02-22T07:13:57.888Z,78403.45
2019-02-22T07:16:29.199Z,78394.41
2019-02-22T07:19:00.396Z,78411.50
2019-02-22T07:21:43.747Z,78407.48
2019-02-22T07:24:04.570Z,78406.47
2019-02-22T07:26:35.809Z,78407.48
2019-02-22T07:29:07.086Z,78380.33
2019-02-22T07:31:38.351Z,78378.31
2019-02-22T07:34:09.556Z,78381.33
2019-02-22T07:36:40.737Z,78382.34
2019-02-22T07:39:12.022Z,78381.33
2019-02-22T07:41:43.281Z,78380.33
2019-02-22T07:44:14.516Z,78384.34
2019-02-22T07:46:45.804Z,78376.30
2019-02-22T07:49:25.693Z,78362.23
2019-02-22T07:51:56.938Z,78371.28
2019-02-22T07:54:28.155Z,78370.27
2019-02-22T07:56:59.420Z,78352.17
2019-02-22T07:59:30.710Z,78340.10
2019-02-22T08:02:01.982Z,78336.08
2019-02-22T08:04:33.275Z,78331.05
2019-02-22T08:07:04.551Z,78328.04
2019-02-22T08:09:35.827Z,78346.14
2019-02-22T08:12:07.135Z,78345.13
2019-02-22T08:14:38.418Z,78350.16
2019-02-22T08:17:09.724Z,78342.11
2019-02-22T08:19:40.998Z,78345.13
2019-02-22T08:22:12.315Z,78338.09
2019-02-22T08:24:43.561Z,78337.09
2019-02-22T08:27:14.774Z,78336.08
2019-02-22T08:29:46.059Z,78326.03
2019-02-22T08:32:17.341Z,78335.08
2019-02-22T08:34:48.540Z,78339.09
2019-02-22T08:37:19.746Z,78322.00
2019-02-22T08:39:58.571Z,78322.00
2019-02-22T08:42:23.915Z,78317.98
2019-02-22T08:44:55.105Z,78277.76
2019-02-22T08:47:26.431Z,78280.77
2019-02-22T08:49:57.711Z,78287.81
2019-02-22T08:52:28.970Z,78305.91
2019-02-22T08:55:00.425Z,78316.97
2019-02-22T08:57:31.630Z,78314.97
2019-02-22T09:00:02.816Z,78318.98
2019-02-22T09:02:34.135Z,78303.91
2019-02-22T09:05:05.625Z,78300.89
2019-02-22T09:07:36.979Z,78312.95
2019-02-22T09:10:09.071Z,78322.00
2019-02-22T09:12:40.350Z,78327.03
2019-02-22T09:15:11.743Z,78310.94
2019-02-22T09:17:43.035Z,78280.77
2019-02-22T09:20:14.407Z,78261.67
2019-02-22T09:22:45.877Z,78268.70
2019-02-22T09:25:17.124Z,78272.73
2019-02-22T09:27:50.909Z,78253.63
2019-02-22T09:30:22.522Z,78251.61
2019-02-22T09:32:53.758Z,78264.69
2019-02-22T09:35:28.069Z,78268.70
2019-02-22T09:37:59.375Z,78255.64
2019-02-22T09:40:30.603Z,78227.48
2019-02-22T09:43:01.906Z,78208.38
2019-02-22T09:45:33.364Z,78182.23
2019-02-22T09:48:04.674Z,78166.14
2019-02-22T09:50:35.820Z,78132.95
2019-02-22T09:53:07.101Z,78126.92
2019-02-22T09:55:38.397Z,78147.03
2019-02-22T09:58:09.674Z,78142.00
2019-02-22T10:00:40.982Z,78157.09
2019-02-22T10:03:12.249Z,78143.02
2019-02-22T10:05:43.647Z,78133.96
2019-02-22T10:08:14.974Z,78135.97
2019-02-22T10:10:46.382Z,78101.78
2019-02-22T10:13:17.725Z,78099.77
2019-02-22T10:15:49.111Z,78066.59
2019-02-22T10:18:20.403Z,78045.48
2019-02-22T10:20:51.670Z,78066.59
2019-02-22T10:23:22.945Z,78034.42
2019-02-22T10:25:54.249Z,78023.36
2019-02-22T10:28:25.540Z,78046.48
2019-02-22T10:30:56.873Z,78050.50
2019-02-22T10:33:36.182Z,78013.30
2019-02-22T10:36:01.091Z,78004.25
2019-02-22T10:38:52.696Z,77990.17
2019-02-22T10:41:23.908Z,78030.39
2019-02-22T10:43:55.083Z,78033.41
2019-02-22T10:46:26.276Z,78002.23
2019-02-22T10:49:01.681Z,78084.69
2019-02-22T10:51:49.570Z,78141.00
2019-02-22T10:54:42.580Z,78136.98
2019-02-22T10:57:27.640Z,78156.08
2019-02-22T11:00:05.775Z,78169.16
2019-02-22T11:02:44.993Z,78172.17
2019-02-22T11:05:22.897Z,78101.78
2019-02-22T11:08:04.075Z,78106.81
2019-02-22T11:10:39.769Z,78138.98
2019-02-22T11:13:16.435Z,78142.00
2019-02-22T11:15:50.286Z,78145.02
2019-02-22T11:18:26.249Z,78120.89
2019-02-22T11:20:57.528Z,78073.63
2019-02-22T11:23:36.963Z,78032.41
2019-02-22T11:26:11.228Z,78002.23
2019-02-22T11:28:45.963Z,77968.05
2019-02-22T11:31:23.272Z,77975.09
2019-02-22T11:33:54.587Z,77975.09
2019-02-22T11:36:25.813Z,78018.33
2019-02-22T11:38:57.183Z,78001.23
2019-02-22T11:41:28.749Z,77996.20
2019-02-22T11:44:00.161Z,77964.03
2019-02-22T11:46:31.799Z,77985.14
2019-02-22T11:49:07.420Z,78021.34
2019-02-22T11:51:38.660Z,78019.33
2019-02-22T11:54:10.814Z,78042.46
2019-02-22T11:56:42.300Z,78065.59
2019-02-22T11:59:13.972Z,78050.50
2019-02-22T12:01:45.898Z,78032.41
2019-02-22T12:04:17.235Z,78062.57
2019-02-22T12:06:48.583Z,78075.64
2019-02-22T12:09:19.847Z,78057.55
2019-02-22T12:11:51.191Z,78050.50
2019-02-22T12:14:22.473Z,78014.30
2019-02-22T12:16:53.847Z,77974.09
2019-02-22T12:19:25.195Z,77965.03
2019-02-22T12:21:56.811Z,77939.90
2019-02-22T12:24:28.119Z,77952.97
2019-02-22T12:26:59.474Z,77949.95
2019-02-22T12:29:30.732Z,77930.84
2019-02-22T12:32:02.114Z,77924.81
2019-02-22T12:34:39.367Z,77908.73
2019-02-22T12:37:10.708Z,77893.64
2019-02-22T12:39:45.046Z,77890.63
2019-02-22T12:42:16.346Z,77916.77
2019-02-22T12:44:47.618Z,77903.70
2019-02-22T12:47:18.855Z,77941.91
2019-02-22T12:49:53.773Z,77924.81
2019-02-22T12:52:25.072Z,77913.75
2019-02-22T12:54:56.391Z,77952.97
2019-02-22T12:57:27.648Z,77900.69
2019-02-22T12:59:58.912Z,77893.64
2019-02-22T13:02:30.259Z,77927.83
2019-02-22T13:05:01.521Z,77992.19
2019-02-22T13:07:32.821Z,77995.20
2019-02-22T13:10:04.239Z,77962.02
2019-02-22T13:12:35.463Z,77959.00
2019-02-22T13:15:14.002Z,77942.91
2019-02-22T13:17:41.325Z,77945.94
2019-02-22T13:20:12.637Z,77987.16
2019-02-22T13:22:43.866Z,78041.45
2019-02-22T13:25:15.111Z,78034.42
2019-02-22T13:27:46.375Z,78009.28
2019-02-22T13:30:17.713Z,78044.47
2019-02-22T13:32:48.976Z,78034.42
2019-02-22T13:35:20.269Z,78033.41
2019-02-22T13:37:54.394Z,78076.64
2019-02-22T13:40:25.773Z,78075.64
2019-02-22T13:42:57.113Z,78061.56
2019-02-22T13:45:28.520Z,78035.42
2019-02-22T13:48:00.010Z,78036.42
2019-02-22T13:50:31.277Z,78011.29
2019-02-22T13:53:02.578Z,77982.13
2019-02-22T13:55:33.904Z,77976.09
2019-02-22T13:58:05.169Z,77960.01
2019-02-22T14:00:36.772Z,77951.97
2019-02-22T14:03:08.412Z,77973.08
2019-02-22T14:05:39.711Z,77982.13
2019-02-22T14:08:10.992Z,78013.30
2019-02-22T14:10:44.439Z,78013.30
2019-02-22T14:13:18.370Z,78030.39
2019-02-22T14:15:49.591Z,78069.61
2019-02-22T14:18:22.230Z,78061.56
2019-02-22T14:20:59.024Z,78065.59
2019-02-22T14:23:30.253Z,78068.60
2019-02-22T14:26:01.747Z,78084.69
2019-02-22T14:28:33.239Z,78049.50
2019-02-22T14:31:04.876Z,78027.38
2019-02-22T14:33:37.093Z,78002.23
2019-02-22T14:36:08.471Z,78029.39
2019-02-22T14:38:43.914Z,78073.63
2019-02-22T14:41:17.492Z,78093.73
2019-02-22T14:43:49.950Z,78095.75
2019-02-22T14:46:25.932Z,78110.84
2019-02-22T14:48:58.125Z,78140.00
2019-02-22T14:51:32.880Z,78118.88
2019-02-22T14:54:04.119Z,78117.88
2019-02-22T14:56:35.430Z,78116.87
2019-02-22T14:59:06.695Z,78122.91
2019-02-22T15:01:38.046Z,78120.89
2019-02-22T15:04:09.351Z,78146.03
2019-02-22T15:06:40.671Z,78164.13
2019-02-22T15:09:11.877Z,78170.16
2019-02-22T15:11:43.095Z,78184.23
2019-02-22T15:14:14.428Z,78182.23
2019-02-22T15:16:55.694Z,78170.16
2019-02-22T15:19:26.990Z,78154.08
2019-02-22T15:22:00.893Z,78118.88
2019-02-22T15:24:33.083Z,78088.71
2019-02-22T15:27:04.309Z,78099.77
2019-02-22T15:29:35.627Z,78125.92
2019-02-22T15:32:06.917Z,78132.95
2019-02-22T15:34:38.101Z,78145.02
2019-02-22T15:37:09.452Z,78138.98
2019-02-22T15:39:40.714Z,78165.13
2019-02-22T15:42:11.976Z,78152.06
2019-02-22T15:44:43.422Z,78153.06
2019-02-22T15:47:14.658Z,78130.95
2019-02-22T15:49:48.557Z,78151.06
2019-02-22T15:52:19.172Z,78169.16
2019-02-22T15:54:50.437Z,78181.22
2019-02-22T15:57:21.793Z,78177.20
2019-02-22T15:59:53.152Z,78157.09
2019-02-22T16:02:24.493Z,78169.16
2019-02-22T16:05:06.331Z,78164.13
2019-02-22T16:07:44.588Z,78175.19
2019-02-22T16:10:10.900Z,78198.31
2019-02-22T16:12:42.254Z,78209.38
2019-02-22T16:15:14.800Z,78223.45
2019-02-22T16:17:46.130Z,78222.45
2019-02-22T16:20:17.424Z,78239.55
2019-02-22T16:22:51.194Z,78240.55
2019-02-22T16:25:21.787Z,78231.50
2019-02-22T16:27:53.241Z,78235.52
2019-02-22T16:30:26.762Z,78234.52
2019-02-22T16:32:58.142Z,78262.67
2019-02-22T16:35:29.416Z,78258.66
2019-02-22T16:38:00.709Z,78254.63
2019-02-22T16:40:32.014Z,78265.69
2019-02-22T16:43:03.293Z,78270.72
2019-02-22T16:45:34.553Z,78275.75
2019-02-22T16:48:05.850Z,78269.71
2019-02-22T16:50:37.913Z,78271.72
2019-02-22T16:53:09.174Z,78273.73
2019-02-22T16:55:40.483Z,78291.84
2019-02-22T16:58:11.679Z,78286.81
2019-02-22T17:00:42.918Z,78301.89
2019-02-22T17:03:14.186Z,78312.95
2019-02-22T17:05:45.475Z,78314.97
2019-02-22T17:08:16.871Z,78316.97
2019-02-22T17:10:48.228Z,78315.97
2019-02-22T17:13:19.499Z,78324.02
2019-02-22T17:15:50.795Z,78328.04
2019-02-22T17:18:21.992Z,78330.05
2019-02-22T17:20:53.215Z,78349.16
2019-02-22T17:23:24.547Z,78347.14
2019-02-22T17:25:55.998Z,78358.20
2019-02-22T17:28:27.280Z,78362.23
2019-02-22T17:30:58.623Z,78352.17
2019-02-22T17:33:29.981Z,78365.24
2019-02-22T17:36:01.324Z,78374.30
2019-02-22T17:38:32.536Z,78371.28
2019-02-22T17:41:03.829Z,78366.25
2019-02-22T17:43:35.213Z,78389.38
2019-02-22T17:46:06.519Z,78391.39
2019-02-22T17:48:37.907Z,78401.45
2019-02-22T17:51:09.258Z,78406.47
2019-02-22T17:53:40.461Z,78410.50
2019-02-22T17:56:11.721Z,78407.48
2019-02-22T17:58:43.047Z,78425.58
2019-02-22T18:01:15.551Z,78427.59
2019-02-22T18:03:47.042Z,78408.48
2019-02-22T18:06:18.642Z,78415.53
2019-02-22T18:08:50.074Z,78412.51
2019-02-22T18:11:21.446Z,78431.61
2019-02-22T18:13:52.844Z,78432.62
2019-02-22T18:16:24.103Z,78444.69
2019-02-22T18:18:58.640Z,78448.71
2019-02-22T18:21:29.968Z,78443.69
2019-02-22T18:24:02.282Z,78448.71
2019-02-22T18:26:34.533Z,78454.74
2019-02-22T18:29:05.802Z,78465.80
2019-02-22T18:31:37.313Z,78465.80
2019-02-22T18:34:08.664Z,78465.80
2019-02-22T18:36:39.913Z,78457.77
2019-02-22T18:39:11.207Z,78472.84
2019-02-22T18:41:42.522Z,78473.85
2019-02-22T18:44:13.820Z,78480.89
2019-02-22T18:46:45.156Z,78490.95
2019-02-22T18:49:19.782Z,78501.00
2019-02-22T18:51:51.239Z,78501.00
2019-02-22T18:54:22.543Z,78501.00
2019-02-22T18:56:53.967Z,78500.00
2019-02-22T18:59:26.484Z,78507.04
2019-02-22T19:01:57.814Z,78524.13
2019-02-22T19:04:29.219Z,78547.27
2019-02-22T19:07:00.487Z,78560.34
2019-02-22T19:09:31.911Z,78580.45
2019-02-22T19:12:03.359Z,78584.47
2019-02-22T19:14:34.651Z,78604.59
2019-02-22T19:17:06.389Z,78612.63
2019-02-22T19:19:37.721Z,78622.69
2019-02-22T19:22:09.148Z,78630.73
2019-02-22T19:24:40.493Z,78650.84
2019-02-22T19:27:11.801Z,78668.95
2019-02-22T19:29:43.204Z,78689.06
2019-02-22T19:32:14.566Z,78711.19
2019-02-22T19:34:45.840Z,78722.25
2019-02-22T19:37:19.131Z,78735.33
2019-02-22T19:39:50.351Z,78748.41
2019-02-22T19:42:23.429Z,78744.38
2019-02-22T19:44:54.732Z,78734.32
2019-02-22T19:47:26.184Z,78768.52
2019-02-22T19:49:58.944Z,78769.52
2019-02-22T19:52:30.319Z,78797.69
2019-02-22T19:55:01.744Z,78806.73
2019-02-22T19:57:33.205Z,78813.77
2019-02-22T20:00:04.814Z,78803.72
2019-02-22T20:02:36.139Z,78804.72
2019-02-22T20:05:08.098Z,78805.73
2019-02-22T20:07:39.422Z,78800.70
2019-02-22T20:10:17.960Z,78801.70
2019-02-22T20:12:46.045Z,78841.94
2019-02-22T20:15:17.990Z,78872.11
2019-02-22T20:17:54.533Z,78849.98
2019-02-22T20:20:22.384Z,78849.98
2019-02-22T20:22:53.680Z,78855.01
2019-02-22T20:25:24.957Z,78864.06
2019-02-22T20:27:56.273Z,78855.01
2019-02-22T20:30:27.615Z,78850.98
2019-02-22T20:32:59.149Z,78853.00
2019-02-22T20:35:31.194Z,78863.05
2019-02-22T20:38:03.138Z,78848.98
2019-02-22T20:40:37.423Z,78830.88
2019-02-22T20:43:11.657Z,78839.92
2019-02-22T20:45:43.069Z,78839.92
2019-02-22T20:48:14.571Z,78859.03
2019-02-22T20:50:46.085Z,78875.13
2019-02-22T20:53:17.446Z,78886.19
2019-02-22T20:55:48.799Z,78889.20
2019-02-22T20:58:20.168Z,78892.22
2019-02-22T21:00:51.471Z,78888.20
2019-02-22T21:03:22.913Z,78890.21
2019-02-22T21:05:54.307Z,78884.17
2019-02-22T21:08:25.595Z,78889.20
2019-02-22T21:10:56.873Z,78887.20
2019-02-22T21:13:28.337Z,78884.17
2019-02-22T21:15:59.736Z,78891.22
2019-02-22T21:18:31.005Z,78900.27
2019-02-22T21:21:02.424Z,78917.37
2019-02-22T21:23:33.884Z,78915.36
2019-02-22T21:26:05.258Z,78912.34
2019-02-22T21:28:36.612Z,78917.37
2019-02-22T21:31:07.922Z,78933.46
2019-02-22T21:33:39.383Z,78932.45
2019-02-22T21:36:10.786Z,78930.44
2019-02-22T21:38:42.017Z,78924.41
2019-02-22T21:41:16.186Z,78935.47
2019-02-22T21:43:46.425Z,78940.50
2019-02-22T21:46:17.741Z,78940.50
2019-02-22T21:48:49.037Z,78948.55
2019-02-22T21:51:20.407Z,78954.58
2019-02-22T21:53:51.789Z,78957.59
2019-02-22T21:56:23.095Z,78960.61
2019-02-22T22:01:23.450Z,78993.81
2019-02-22T22:03:54.748Z,78985.76
2019-02-22T22:06:26.133Z,78992.80
2019-02-22T22:08:57.331Z,79001.85
2019-02-22T22:11:28.668Z,79012.92
2019-02-22T22:14:01.093Z,79008.89
2019-02-22T22:16:32.607Z,79012.92
2019-02-22T22:19:03.892Z,79008.89
2019-02-22T22:21:35.244Z,79015.94
2019-02-22T22:24:06.965Z,79021.97
2019-02-22T22:26:38.411Z,79037.05
2019-02-22T22:29:09.655Z,79040.08
2019-02-22T22:31:41.182Z,79044.09
2019-02-22T22:34:12.592Z,79055.16
2019-02-22T22:36:43.942Z,79065.22
2019-02-22T22:39:15.263Z,79078.30
2019-02-22T22:41:46.600Z,79087.34
2019-02-22T22:44:17.859Z,79094.39
2019-02-22T22:46:49.072Z,79082.31
2019-02-22T22:49:20.409Z,79076.28
2019-02-22T22:51:54.033Z,79083.33
2019-02-22T22:54:27.397Z,79082.31
2019-02-22T22:56:58.543Z,79087.34
2019-02-22T22:59:30.011Z,79085.34
2019-02-22T23:02:01.471Z,79091.37
2019-02-22T23:04:32.878Z,79093.38
2019-02-22T23:07:04.124Z,79098.41
2019-02-22T23:09:35.582Z,79100.42
2019-02-22T23:12:07.391Z,79115.51
2019-02-22T23:14:38.930Z,79130.59
2019-02-22T23:17:10.275Z,79140.66
2019-02-22T23:19:41.890Z,79152.73
2019-02-22T23:22:13.271Z,79159.77
2019-02-22T23:24:44.612Z,79178.88
2019-02-22T23:27:16.145Z,79170.83
2019-02-22T23:29:47.470Z,79156.75
2019-02-22T23:32:18.774Z,79160.77
2019-02-22T23:34:50.020Z,79160.77
2019-02-22T23:37:21.411Z,79168.82
2019-02-22T23:39:52.692Z,79168.82
2019-02-22T23:42:24.031Z,79168.82
2019-02-22T23:44:55.378Z,79166.80
2019-02-22T23:47:26.787Z,79162.78
2019-02-22T23:49:59.129Z,79170.83
2019-02-22T23:52:30.514Z,79164.80
2019-02-22T23:55:04.972Z,79169.83
2019-02-22T23:57:36.393Z,79177.88
